createdAt,value
2019-04-28T00:02:01.351Z,100630.72
2019-04-28T00:04:33.275Z,100628.20
2019-04-28T00:07:04.578Z,100625.98
2019-04-28T00:09:36.125Z,100629.83
2019-04-28T00:12:07.950Z,100629.91
2019-04-28T00:14:39.315Z,100631.62
2019-04-28T00:17:11.200Z,100634.34
2019-04-28T00:19:43.123Z,100637.73
2019-04-28T00:22:33.230Z,100642.09
2019-04-28T00:25:17.744Z,100641.20
2019-04-28T00:27:49.120Z,100648.19
2019-04-28T00:30:21.758Z,100647.37
2019-04-28T00:32:53.302Z,100649.98
2019-04-28T00:35:24.776Z,100642.13
2019-04-28T00:37:55.966Z,100644.36
2019-04-28T00:40:27.694Z,100650.87
2019-04-28T00:43:00.808Z,100647.81
2019-04-28T00:45:31.775Z,100641.64
2019-04-28T00:48:02.998Z,100655.55
2019-04-28T00:50:34.510Z,100653.39
2019-04-28T00:53:05.807Z,100658.66
2019-04-28T00:55:37.100Z,100650.34
2019-04-28T00:58:08.387Z,100651.26
2019-04-28T01:00:41.533Z,100647.27
2019-04-28T01:03:12.945Z,100651.70
2019-04-28T01:05:44.454Z,100646.01
2019-04-28T01:08:15.823Z,100648.99
2019-04-28T01:10:47.132Z,100649.43
2019-04-28T01:13:18.614Z,100650.73
2019-04-28T01:16:05.099Z,100652.02
2019-04-28T01:18:49.756Z,100646.34
2019-04-28T01:21:22.607Z,100647.69
2019-04-28T01:23:53.777Z,100652.06
2019-04-28T01:26:24.992Z,100644.69
2019-04-28T01:28:56.167Z,100650.78
2019-04-28T01:31:42.141Z,100655.62
2019-04-28T01:34:20.650Z,100656.95
2019-04-28T01:36:53.148Z,100659.54
2019-04-28T01:39:24.762Z,100660.42
2019-04-28T01:41:56.570Z,100660.42
2019-04-28T01:44:29.221Z,100664.77
2019-04-28T01:47:01.216Z,100661.25
2019-04-28T01:49:32.711Z,100665.56
2019-04-28T01:52:04.499Z,100670.36
2019-04-28T01:54:35.751Z,100669.89
2019-04-28T01:57:07.054Z,100665.19
2019-04-28T01:59:40.365Z,100666.49
2019-04-28T02:02:11.919Z,100669.99
2019-04-28T02:04:45.611Z,100674.72
2019-04-28T02:07:20.613Z,100675.58
2019-04-28T02:09:52.530Z,100681.67
2019-04-28T02:12:24.188Z,100676.45
2019-04-28T02:14:55.908Z,100681.66
2019-04-28T02:17:27.416Z,100683.38
2019-04-28T02:20:00.436Z,100680.83
2019-04-28T02:22:36.961Z,100678.64
2019-04-28T02:25:09.956Z,100689.50
2019-04-28T02:27:41.505Z,100686.03
2019-04-28T02:30:12.967Z,100685.61
2019-04-28T02:32:44.179Z,100689.05
2019-04-28T02:35:15.747Z,100691.72
2019-04-28T02:37:47.265Z,100692.12
2019-04-28T02:40:20.740Z,100697.42
2019-04-28T02:42:52.391Z,100696.10
2019-04-28T02:45:24.081Z,100693.50
2019-04-28T02:48:00.987Z,100698.23
2019-04-28T02:50:43.918Z,100697.36
2019-04-28T02:53:21.115Z,100690.39
2019-04-28T02:55:51.581Z,100698.70
2019-04-28T02:58:22.581Z,100698.69
2019-04-28T03:01:06.103Z,100705.63
2019-04-28T03:03:24.941Z,100702.14
2019-04-28T03:05:55.112Z,100717.38
2019-04-28T03:08:25.836Z,100714.34
2019-04-28T03:10:55.972Z,100716.97
2019-04-28T03:13:26.132Z,100715.66
2019-04-28T03:15:56.221Z,100719.55
2019-04-28T03:18:26.659Z,100713.90
2019-04-28T03:20:56.911Z,100714.79
2019-04-28T03:23:27.156Z,100718.27
2019-04-28T03:26:05.966Z,100723.49
2019-04-28T03:28:54.338Z,100726.55
2019-04-28T03:34:15.274Z,100731.33
2019-04-28T03:36:45.889Z,100732.66
2019-04-28T03:39:16.272Z,100740.48
2019-04-28T03:41:46.723Z,100740.48
2019-04-28T03:44:17.077Z,100750.09
2019-04-28T03:46:53.213Z,100747.50
2019-04-28T03:49:32.667Z,100754.48
2019-04-28T03:52:11.636Z,100754.45
2019-04-28T03:54:43.096Z,100762.73
2019-04-28T03:57:14.742Z,100769.72
2019-04-28T03:59:51.132Z,100766.24
2019-04-28T04:02:22.944Z,100771.48
2019-04-28T04:04:52.942Z,100768.00
2019-04-28T04:07:23.201Z,100769.73
2019-04-28T04:10:11.402Z,100776.30
2019-04-28T04:13:04.716Z,100778.91
2019-04-28T04:15:54.019Z,100775.38
2019-04-28T04:18:37.214Z,100779.77
2019-04-28T04:21:07.416Z,100780.17
2019-04-28T04:23:37.618Z,100784.97
2019-04-28T04:26:08.179Z,100781.94
2019-04-28T04:28:41.351Z,100786.73
2019-04-28T04:31:10.671Z,100787.62
2019-04-28T04:33:41.503Z,100787.20
2019-04-28T04:36:12.158Z,100795.45
2019-04-28T04:38:45.967Z,100793.72
2019-04-28T04:41:14.565Z,100799.80
2019-04-28T04:43:47.407Z,100797.19
2019-04-28T04:46:23.027Z,100800.67
2019-04-28T04:48:53.246Z,100798.09
2019-04-28T04:51:23.515Z,100807.20
2019-04-28T04:53:54.017Z,100815.05
2019-04-28T04:56:24.503Z,100816.35
2019-04-28T04:58:54.663Z,100822.02
2019-04-28T05:01:50.317Z,100824.63
2019-04-28T05:04:36.189Z,100822.47
2019-04-28T05:07:06.948Z,100828.53
2019-04-28T05:09:39.501Z,100835.06
2019-04-28T05:12:09.770Z,100834.21
2019-04-28T05:14:39.842Z,100838.52
2019-04-28T05:17:10.494Z,100844.21
2019-04-28T05:19:41.146Z,100840.72
2019-04-28T05:22:11.887Z,100840.73
2019-04-28T05:25:03.463Z,100847.70
2019-04-28T05:27:33.620Z,100848.53
2019-04-28T05:30:05.139Z,100862.04
2019-04-28T05:32:44.791Z,100862.47
2019-04-28T05:35:07.768Z,100859.41
2019-04-28T05:37:37.998Z,100864.63
2019-04-28T05:40:10.318Z,100868.56
2019-04-28T05:42:42.962Z,100869.00
2019-04-28T05:45:13.115Z,100874.21
2019-04-28T05:47:43.329Z,100882.48
2019-04-28T05:50:22.290Z,100882.91
2019-04-28T05:53:07.638Z,100895.95
2019-04-28T05:55:43.513Z,100892.92
2019-04-28T05:58:25.100Z,100893.39
2019-04-28T06:01:10.248Z,100900.75
2019-04-28T06:03:43.185Z,100901.62
2019-04-28T06:06:13.275Z,100902.48
2019-04-28T06:08:51.027Z,100904.22
2019-04-28T06:11:32.157Z,100897.30
2019-04-28T06:14:05.367Z,100898.58
2019-04-28T06:16:35.609Z,100896.41
2019-04-28T06:19:06.168Z,100886.38
2019-04-28T06:21:36.358Z,100890.27
2019-04-28T06:24:06.415Z,100893.36
2019-04-28T06:26:36.648Z,100895.07
2019-04-28T06:29:07.537Z,100898.13
2019-04-28T06:31:38.275Z,100904.21
2019-04-28T06:34:08.497Z,100901.59
2019-04-28T06:36:39.043Z,100904.19
2019-04-28T06:39:10.217Z,100903.75
2019-04-28T06:41:40.293Z,100916.77
2019-04-28T06:44:10.422Z,100925.90
2019-04-28T06:46:40.482Z,100920.20
2019-04-28T06:49:10.753Z,100917.56
2019-04-28T06:51:40.890Z,100926.23
2019-04-28T06:54:10.942Z,100928.89
2019-04-28T06:56:41.433Z,100937.53
2019-04-28T06:59:12.456Z,100940.56
2019-04-28T07:01:43.010Z,100940.52
2019-04-28T07:04:13.604Z,100950.06
2019-04-28T07:06:43.856Z,100944.34
2019-04-28T07:09:15.658Z,100941.25
2019-04-28T07:11:47.264Z,100946.49
2019-04-28T07:14:18.821Z,100935.06
2019-04-28T07:16:48.943Z,100942.49
2019-04-28T07:19:24.198Z,100958.26
2019-04-28T07:22:05.219Z,100948.13
2019-04-28T07:24:35.431Z,100948.55
2019-04-28T07:27:07.098Z,100955.49
2019-04-28T07:29:38.346Z,100946.80
2019-04-28T07:32:08.940Z,100941.59
2019-04-28T07:34:39.578Z,100941.11
2019-04-28T07:37:11.036Z,100943.72
2019-04-28T07:39:41.209Z,100947.12
2019-04-28T07:42:13.341Z,100959.35
2019-04-28T07:44:43.599Z,100953.66
2019-04-28T07:47:13.774Z,100962.89
2019-04-28T07:49:44.197Z,100963.19
2019-04-28T07:52:19.832Z,100967.92
2019-04-28T07:54:50.049Z,100976.66
2019-04-28T07:57:20.584Z,100973.44
2019-04-28T07:59:50.714Z,100974.20
2019-04-28T08:02:21.022Z,100977.60
2019-04-28T08:04:51.185Z,100980.50
2019-04-28T08:07:21.387Z,100982.78
2019-04-28T08:09:51.914Z,100981.94
2019-04-28T08:12:25.200Z,100989.23
2019-04-28T08:14:55.391Z,100986.05
2019-04-28T08:17:25.644Z,100981.06
2019-04-28T08:19:57.453Z,100985.33
2019-04-28T08:22:29.381Z,100981.34
2019-04-28T08:25:01.597Z,100978.20
2019-04-28T08:27:32.336Z,100978.28
2019-04-28T08:30:06.499Z,100979.36
2019-04-28T08:32:42.621Z,100981.81
2019-04-28T08:35:12.980Z,100984.70
2019-04-28T08:37:44.068Z,100988.75
2019-04-28T08:40:14.531Z,100994.75
2019-04-28T08:42:44.910Z,101007.59
2019-04-28T08:45:15.754Z,101010.41
2019-04-28T08:47:58.069Z,101014.36
2019-04-28T08:50:28.231Z,101020.39
2019-04-28T08:52:58.438Z,101017.13
2019-04-28T08:55:29.381Z,101018.92
2019-04-28T08:58:00.148Z,101017.30
2019-04-28T09:00:30.229Z,101019.37
2019-04-28T09:03:00.366Z,101018.33
2019-04-28T09:05:30.962Z,101021.48
2019-04-28T09:08:02.441Z,101019.98
2019-04-28T09:10:32.775Z,101029.69
2019-04-28T09:13:03.036Z,101034.88
2019-04-28T09:15:33.715Z,101041.77
2019-04-28T09:18:04.225Z,101049.45
2019-04-28T09:20:34.800Z,101057.80
2019-04-28T09:23:04.912Z,101063.91
2019-04-28T09:25:36.148Z,101060.81
2019-04-28T09:28:06.713Z,101068.75
2019-04-28T09:30:37.058Z,101066.08
2019-04-28T09:33:07.224Z,101071.70
2019-04-28T09:35:37.724Z,101071.19
2019-04-28T09:38:09.092Z,101078.64
2019-04-28T09:40:39.523Z,101072.28
2019-04-28T09:43:23.028Z,101062.09
2019-04-28T09:46:18.249Z,101067.17
2019-04-28T09:48:51.857Z,101062.11
2019-04-28T09:51:22.145Z,101057.03
2019-04-28T09:53:53.458Z,101064.19
2019-04-28T09:56:24.059Z,101052.92
2019-04-28T09:58:58.921Z,101058.94
2019-04-28T10:01:30.335Z,101061.63
2019-04-28T10:04:01.556Z,101058.66
2019-04-28T10:06:35.960Z,101060.41
2019-04-28T10:09:10.051Z,101057.56
2019-04-28T10:11:45.489Z,101051.45
2019-04-28T10:14:16.994Z,101057.89
2019-04-28T10:16:50.342Z,101059.61
2019-04-28T10:19:22.494Z,101052.36
2019-04-28T10:21:55.396Z,101051.55
2019-04-28T10:24:27.193Z,101053.04
2019-04-28T10:26:59.176Z,101049.55
2019-04-28T10:29:44.661Z,101055.44
2019-04-28T10:32:17.441Z,101047.47
2019-04-28T10:34:55.113Z,101056.17
2019-04-28T10:37:21.957Z,101058.44
2019-04-28T10:40:05.069Z,101058.36
2019-04-28T10:42:36.807Z,101054.10
2019-04-28T10:45:10.605Z,101046.73
2019-04-28T10:47:42.401Z,101045.72
2019-04-28T10:50:14.017Z,101047.86
2019-04-28T10:52:45.437Z,101053.67
2019-04-28T10:55:19.160Z,101045.76
2019-04-28T10:57:50.789Z,101046.23
2019-04-28T11:00:25.289Z,101039.40
2019-04-28T11:03:00.061Z,101043.54
2019-04-28T11:05:39.540Z,101036.54
2019-04-28T11:08:25.977Z,101039.41
2019-04-28T11:10:59.014Z,101040.78
2019-04-28T11:13:32.991Z,101039.31
2019-04-28T11:16:04.533Z,101038.09
2019-04-28T11:18:36.056Z,101037.00
2019-04-28T11:21:11.304Z,101040.89
2019-04-28T11:23:42.883Z,101046.80
2019-04-28T11:26:15.245Z,101046.14
2019-04-28T11:28:47.094Z,101041.81
2019-04-28T11:31:18.437Z,101044.69
2019-04-28T11:34:13.771Z,101043.25
2019-04-28T11:36:44.970Z,101038.77
2019-04-28T11:39:20.940Z,101042.99
2019-04-28T11:41:53.083Z,101048.92
2019-04-28T11:44:26.510Z,101055.16
2019-04-28T11:46:57.892Z,101057.21
2019-04-28T11:49:29.631Z,101044.09
2019-04-28T11:52:03.067Z,101049.09
2019-04-28T11:54:49.892Z,101053.39
2019-04-28T11:57:21.689Z,101047.63
2019-04-28T11:59:54.161Z,101052.55
2019-04-28T12:02:25.421Z,101050.09
2019-04-28T12:04:58.262Z,101047.85
2019-04-28T12:07:30.035Z,101045.17
2019-04-28T12:10:52.324Z,101047.64
2019-04-28T12:13:43.235Z,101045.65
2019-04-28T12:16:36.656Z,101048.83
2019-04-28T12:19:25.273Z,101048.17
2019-04-28T12:21:58.663Z,101049.38
2019-04-28T12:24:43.954Z,101052.06
2019-04-28T12:27:15.733Z,101047.36
2019-04-28T12:29:47.467Z,101051.77
2019-04-28T12:32:20.711Z,101052.03
2019-04-28T12:34:53.333Z,101052.55
2019-04-28T12:37:24.535Z,101056.89
2019-04-28T12:39:56.783Z,101065.01
2019-04-28T12:42:30.093Z,101059.78
2019-04-28T12:45:02.538Z,101067.63
2019-04-28T12:47:39.173Z,101063.44
2019-04-28T12:50:24.219Z,101063.25
2019-04-28T12:52:55.572Z,101064.27
2019-04-28T12:55:27.332Z,101071.86
2019-04-28T12:57:59.012Z,101080.92
2019-04-28T13:00:45.585Z,101086.32
2019-04-28T13:03:51.593Z,101086.32
2019-04-28T13:06:25.769Z,101092.24
2019-04-28T13:08:57.401Z,101086.52
2019-04-28T13:11:34.081Z,101091.72
2019-04-28T13:14:06.967Z,101090.03
2019-04-28T13:16:41.593Z,101096.48
2019-04-28T13:19:14.010Z,101090.27
2019-04-28T13:21:47.070Z,101090.25
2019-04-28T13:24:18.785Z,101092.52
2019-04-28T13:26:56.228Z,101104.01
2019-04-28T13:29:30.879Z,101100.53
2019-04-28T13:32:02.183Z,101107.36
2019-04-28T13:34:35.246Z,101110.69
2019-04-28T13:37:06.930Z,101108.27
2019-04-28T13:39:44.974Z,101108.74
2019-04-28T13:42:18.654Z,101109.05
2019-04-28T13:45:11.300Z,101119.57
2019-04-28T13:47:43.050Z,101120.30
2019-04-28T13:50:22.608Z,101129.92
2019-04-28T13:52:54.398Z,101130.67
2019-04-28T13:55:40.287Z,101134.06
2019-04-28T13:58:12.203Z,101127.89
2019-04-28T14:01:04.327Z,101127.93
2019-04-28T14:03:57.883Z,101126.19
2019-04-28T14:06:30.706Z,101132.50
2019-04-28T14:09:02.819Z,101129.47
2019-04-28T14:11:43.242Z,101129.55
2019-04-28T14:14:16.309Z,101126.26
2019-04-28T14:16:48.039Z,101130.81
2019-04-28T14:19:19.655Z,101135.48
2019-04-28T14:21:51.770Z,101124.74
2019-04-28T14:24:23.133Z,101122.13
2019-04-28T14:26:54.398Z,101127.25
2019-04-28T14:29:25.794Z,101129.27
2019-04-28T14:31:58.824Z,101130.67
2019-04-28T14:34:37.601Z,101125.90
2019-04-28T14:37:21.689Z,101125.06
2019-04-28T14:39:51.626Z,101133.34
2019-04-28T14:42:24.187Z,101125.97
2019-04-28T14:44:55.914Z,101132.66
2019-04-28T14:47:27.432Z,101125.66
2019-04-28T14:50:02.683Z,101133.13
2019-04-28T14:52:32.989Z,101131.06
2019-04-28T14:55:04.554Z,101123.73
2019-04-28T14:57:41.179Z,101124.87
2019-04-28T15:00:15.274Z,101124.58
2019-04-28T15:02:53.163Z,101133.11
2019-04-28T15:05:46.199Z,101132.88
2019-04-28T15:08:36.358Z,101127.81
2019-04-28T15:11:17.067Z,101129.16
2019-04-28T15:13:50.174Z,101132.00
2019-04-28T15:16:21.554Z,101135.55
2019-04-28T15:19:04.977Z,101131.65
2019-04-28T15:21:36.287Z,101124.45
2019-04-28T15:24:07.921Z,101132.19
2019-04-28T15:26:39.598Z,101129.70
2019-04-28T15:29:11.359Z,101136.11
2019-04-28T15:31:54.135Z,101136.14
2019-04-28T15:34:25.493Z,101134.81
2019-04-28T15:37:09.215Z,101138.43
2019-04-28T15:39:34.429Z,101138.95
2019-04-28T15:42:05.929Z,101140.98
2019-04-28T15:44:46.272Z,101141.48
2019-04-28T15:47:18.116Z,101132.50
2019-04-28T15:49:49.747Z,101135.84
2019-04-28T15:52:23.797Z,101131.14
2019-04-28T15:55:01.130Z,101137.92
2019-04-28T15:57:33.693Z,101125.39
2019-04-28T16:00:06.623Z,101135.53
2019-04-28T16:02:42.452Z,101132.27
2019-04-28T16:05:14.157Z,101137.00
2019-04-28T16:07:45.357Z,101136.44
2019-04-28T16:10:18.160Z,101132.06
2019-04-28T16:12:52.245Z,101136.84
2019-04-28T16:15:23.911Z,101135.59
2019-04-28T16:17:56.896Z,101130.00
2019-04-28T16:20:30.049Z,101134.50
2019-04-28T16:23:01.470Z,101132.62
2019-04-28T16:25:38.403Z,101136.11
2019-04-28T16:28:09.918Z,101132.74
2019-04-28T16:30:42.285Z,101136.59
2019-04-28T16:33:15.676Z,101142.20
2019-04-28T16:35:47.313Z,101145.78
2019-04-28T16:38:19.477Z,101140.36
2019-04-28T16:40:53.763Z,101148.42
2019-04-28T16:43:28.329Z,101150.27
2019-04-28T16:46:00.704Z,101151.47
2019-04-28T16:48:36.437Z,101154.36
2019-04-28T16:51:14.500Z,101158.97
2019-04-28T16:53:44.715Z,101158.04
2019-04-28T16:56:33.421Z,101157.44
2019-04-28T16:59:22.230Z,101157.02
2019-04-28T17:02:03.844Z,101160.28
2019-04-28T17:04:35.413Z,101164.88
2019-04-28T17:07:07.105Z,101168.05
2019-04-28T17:09:38.867Z,101168.61
2019-04-28T17:12:10.735Z,101168.45
2019-04-28T17:14:42.456Z,101174.05
2019-04-28T17:17:14.283Z,101178.65
2019-04-28T17:19:46.136Z,101172.66
2019-04-28T17:22:17.886Z,101178.53
2019-04-28T17:24:49.931Z,101178.84
2019-04-28T17:27:21.365Z,101174.09
2019-04-28T17:29:52.567Z,101175.69
2019-04-28T17:32:24.647Z,101178.63
2019-04-28T17:34:59.326Z,101183.46
2019-04-28T17:37:31.072Z,101185.03
2019-04-28T17:40:03.013Z,101189.09
2019-04-28T17:42:34.341Z,101184.73
2019-04-28T17:45:06.647Z,101193.56
2019-04-28T17:47:38.272Z,101191.55
2019-04-28T17:50:11.711Z,101190.65
2019-04-28T17:52:43.012Z,101191.55
2019-04-28T17:55:14.455Z,101193.13
2019-04-28T17:57:45.766Z,101195.49
2019-04-28T18:00:30.982Z,101200.36
2019-04-28T18:03:14.441Z,101199.37
2019-04-28T18:05:50.054Z,101203.61
2019-04-28T18:08:22.386Z,101202.98
2019-04-28T18:10:53.852Z,101208.14
2019-04-28T18:13:25.104Z,101210.98
2019-04-28T18:16:11.669Z,101217.06
2019-04-28T18:18:46.247Z,101223.27
2019-04-28T18:21:18.104Z,101228.59
2019-04-28T18:23:49.794Z,101228.23
2019-04-28T18:26:21.476Z,101227.69
2019-04-28T18:28:53.081Z,101231.89
2019-04-28T18:31:43.898Z,101243.84
2019-04-28T18:34:32.607Z,101250.16
2019-04-28T18:37:25.685Z,101248.16
2019-04-28T18:40:16.787Z,101244.84
2019-04-28T18:42:53.727Z,101257.00
2019-04-28T18:45:24.969Z,101264.66
2019-04-28T18:47:56.346Z,101262.23
2019-04-28T18:50:28.009Z,101268.59
2019-04-28T18:53:01.889Z,101269.59
2019-04-28T18:55:33.870Z,101268.83
2019-04-28T18:58:05.151Z,101277.86
2019-04-28T19:00:38.578Z,101281.95
2019-04-28T19:03:09.857Z,101280.03
2019-04-28T19:05:42.959Z,101285.80
2019-04-28T19:08:33.237Z,101291.94
2019-04-28T19:11:29.551Z,101291.63
2019-04-28T19:14:10.333Z,101289.53
2019-04-28T19:16:59.996Z,101292.72
2019-04-28T19:19:32.119Z,101292.88
2019-04-28T19:22:03.432Z,101288.58
2019-04-28T19:24:34.807Z,101298.33
2019-04-28T19:27:06.300Z,101293.63
2019-04-28T19:29:37.541Z,101304.64
2019-04-28T19:32:09.326Z,101309.53
2019-04-28T19:34:41.230Z,101310.47
2019-04-28T19:37:12.853Z,101314.95
2019-04-28T19:39:44.643Z,101317.66
2019-04-28T19:42:16.833Z,101312.97
2019-04-28T19:44:48.054Z,101313.89
2019-04-28T19:47:19.642Z,101317.45
2019-04-28T19:49:51.285Z,101320.58
2019-04-28T19:52:23.509Z,101320.58
2019-04-28T19:55:23.299Z,101316.23
2019-04-28T19:58:20.309Z,101325.47
2019-04-28T20:00:55.644Z,101328.55
2019-04-28T20:03:27.136Z,101329.91
2019-04-28T20:05:58.686Z,101335.20
2019-04-28T20:08:33.121Z,101333.50
2019-04-28T20:11:04.305Z,101334.40
2019-04-28T20:13:35.587Z,101336.16
2019-04-28T20:16:08.075Z,101341.45
2019-04-28T20:18:39.701Z,101331.87
2019-04-28T20:21:11.237Z,101331.87
2019-04-28T20:23:42.938Z,101336.28
2019-04-28T20:26:14.963Z,101345.96
2019-04-28T20:28:46.193Z,101343.78
2019-04-28T20:31:17.926Z,101352.09
2019-04-28T20:33:50.702Z,101358.23
2019-04-28T20:36:32.939Z,101357.34
2019-04-28T20:39:09.749Z,101349.96
2019-04-28T20:41:43.159Z,101358.26
2019-04-28T20:44:15.148Z,101356.97
2019-04-28T20:46:46.590Z,101364.88
2019-04-28T20:49:17.899Z,101366.17
2019-04-28T20:51:49.241Z,101369.23
2019-04-28T20:54:20.479Z,101371.88
2019-04-28T20:56:51.930Z,101376.69
2019-04-28T20:59:23.192Z,101373.19
2019-04-28T21:06:05.776Z,101367.06
2019-04-28T21:08:40.403Z,101370.59
2019-04-28T21:11:28.497Z,101367.05
2019-04-28T21:17:16.044Z,101379.29
2019-04-28T21:17:55.673Z,101378.41
2019-04-28T21:21:20.282Z,101383.64
2019-04-28T21:24:38.467Z,101385.83
2019-04-28T21:27:10.890Z,101384.53
2019-04-28T21:29:42.877Z,101391.92
2019-04-28T21:33:05.531Z,101391.51
2019-04-28T21:36:25.432Z,101391.92
2019-04-28T21:38:57.320Z,101388.87
2019-04-28T21:41:28.737Z,101394.11
2019-04-28T21:44:43.126Z,101390.60
2019-04-28T21:48:34.909Z,101391.47
2019-04-28T21:55:04.164Z,101391.00
2019-04-28T21:58:32.907Z,101388.83
2019-04-28T22:00:56.314Z,101390.58
2019-04-28T22:03:27.984Z,101388.80
2019-04-28T22:06:47.308Z,101387.97
2019-04-28T22:09:18.895Z,101400.99
2019-04-28T22:11:50.214Z,101400.55
2019-04-28T22:14:21.978Z,101401.87
2019-04-28T22:16:58.095Z,101402.71
2019-04-28T22:20:03.043Z,101400.95
2019-04-28T22:22:32.092Z,101396.57
2019-04-28T22:29:45.866Z,101395.73
2019-04-28T22:32:47.572Z,101395.72
2019-04-28T22:35:22.237Z,101402.70
2019-04-28T22:38:00.774Z,101409.65
2019-04-28T22:40:32.068Z,101410.11
2019-04-28T22:43:45.281Z,101405.75
2019-04-28T22:46:16.701Z,101409.63
2019-04-28T22:57:33.745Z,101413.55
2019-04-28T23:00:14.248Z,101406.99
2019-04-28T23:02:45.476Z,101402.59
2019-04-28T23:05:22.535Z,101412.64
2019-04-28T23:07:54.226Z,101412.64
2019-04-28T23:10:26.006Z,101414.79
2019-04-28T23:12:57.792Z,101416.52
2019-04-28T23:16:32.352Z,101411.76
2019-04-28T23:19:39.985Z,101415.22
2019-04-28T23:22:19.572Z,101416.50
2019-04-28T23:24:51.181Z,101415.17
2019-04-28T23:27:22.885Z,101415.16
2019-04-28T23:29:54.864Z,101416.46
2019-04-28T23:32:46.357Z,101416.92
2019-04-28T23:35:24.533Z,101417.73
2019-04-28T23:37:56.035Z,101416.89
2019-04-28T23:40:27.912Z,101414.24
2019-04-28T23:43:04.233Z,101415.97
2019-04-28T23:45:35.718Z,101417.25
2019-04-28T23:48:26.772Z,101418.12
2019-04-28T23:51:10.444Z,101427.25
2019-04-28T23:54:03.220Z,101423.74
2019-04-28T23:56:34.978Z,101424.58
2019-04-28T23:59:27.345Z,101424.98
